Time;durP1;ratioP1;P1;durP2;ratioP2;P2;SDS_P1;SDS_P2;PMS_P1;PMS_P2;Temp;Humidity;BMP_temperature;BMP_pressure;BME280_temperature;BME280_humidity;BME280_pressure;Samples;Min_cycle;Max_cycle;Signal;HPM_P1;HPM_P2
2021/03/31 00:00:27;;;;;;;12.77;9.20;;;;;;;13.12;28.18;102262.78;4979385;28;96992;-71
2021/03/31 00:02:55;;;;;;;16.85;10.15;;;;;;;13.07;28.08;102262.66;5001546;27;99699;-71
2021/03/31 00:05:22;;;;;;;17.73;10.43;;;;;;;13.03;28.04;102249.09;5001113;28;97517;-72
2021/03/31 00:07:49;;;;;;;24.27;10.30;;;;;;;12.98;28.09;102253.34;5021006;27;97381;-72
2021/03/31 00:10:22;;;;;;;18.10;9.70;;;;;;;12.90;28.30;102245.06;4983609;28;100319;-71
2021/03/31 00:12:52;;;;;;;14.38;9.88;;;;;;;12.88;28.37;102240.53;5000442;27;100535;-71
2021/03/31 00:15:19;;;;;;;21.65;11.80;;;;;;;12.83;28.24;102232.34;4978323;28;97889;-71
2021/03/31 00:17:46;;;;;;;17.02;10.02;;;;;;;12.81;28.30;102234.06;5020140;27;96935;-72
2021/03/31 00:20:14;;;;;;;15.05;10.52;;;;;;;12.78;28.35;102241.94;5000431;28;99021;-71
2021/03/31 00:22:42;;;;;;;17.00;11.05;;;;;;;12.76;28.43;102241.03;5022108;27;98319;-72
2021/03/31 00:25:11;;;;;;;19.67;10.57;;;;;;;12.76;28.31;102237.44;4998354;28;96962;-72
2021/03/31 00:27:38;;;;;;;16.98;9.75;;;;;;;12.75;28.38;102243.59;5000487;28;97244;-72
2021/03/31 00:30:08;;;;;;;19.23;9.90;;;;;;;12.71;28.45;102234.59;5001672;27;99615;-71
2021/03/31 00:32:35;;;;;;;15.00;10.25;;;;;;;12.72;28.46;102235.50;5000766;28;98500;-71
2021/03/31 00:35:05;;;;;;;14.93;10.25;;;;;;;12.67;28.47;102230.00;4984465;27;97680;-69
2021/03/31 00:37:32;;;;;;;17.63;10.68;;;;;;;12.63;28.58;102232.50;5018132;27;96951;-69
2021/03/31 00:39:59;;;;;;;14.70;8.93;;;;;;;12.56;28.88;102231.38;5019995;27;97872;-70
2021/03/31 00:42:27;;;;;;;18.60;10.20;;;;;;;12.53;28.69;102225.91;5002890;28;99994;-70
2021/03/31 00:44:54;;;;;;;15.57;11.10;;;;;;;12.51;28.91;102216.06;5003034;27;97034;-70
2021/03/31 00:47:22;;;;;;;15.30;11.23;;;;;;;12.51;28.76;102206.25;5020160;27;98349;-70
2021/03/31 00:49:49;;;;;;;19.48;11.63;;;;;;;12.46;28.82;102222.97;5017185;27;97883;-70
2021/03/31 00:52:16;;;;;;;14.32;10.35;;;;;;;12.48;28.83;102221.25;4983359;28;97665;-70
2021/03/31 00:54:44;;;;;;;19.38;13.10;;;;;;;12.41;30.59;102224.56;4999180;27;97776;-70
2021/03/31 00:57:11;;;;;;;20.70;12.80;;;;;;;12.46;31.13;102217.63;4996050;28;97609;-70
2021/03/31 00:59:38;;;;;;;15.05;10.40;;;;;;;12.44;30.49;102211.31;5018672;27;98268;-69
2021/03/31 01:02:05;;;;;;;18.33;12.38;;;;;;;12.47;31.44;102211.44;5017219;27;97773;-73
2021/03/31 01:04:32;;;;;;;18.23;12.50;;;;;;;12.54;31.77;102210.81;4977614;28;99271;-71
2021/03/31 01:06:59;;;;;;;19.00;12.30;;;;;;;12.54;31.87;102195.72;4998429;27;97363;-72
2021/03/31 01:09:27;;;;;;;15.50;10.32;;;;;;;12.53;31.42;102198.31;5001083;28;98003;-71
2021/03/31 01:12:04;;;;;;;15.43;10.10;;;;;;;12.47;31.08;102198.09;5000602;27;97666;-71
2021/03/31 01:14:42;;;;;;;15.25;9.70;;;;;;;12.36;31.17;102199.47;4993657;28;99351;-71
2021/03/31 01:17:14;;;;;;;15.35;9.38;;;;;;;12.32;30.93;102192.19;5000001;28;97946;-71
2021/03/31 01:19:52;;;;;;;20.55;10.82;;;;;;;12.27;30.88;102194.72;5017943;27;97885;-71
2021/03/31 01:23:01;;;;;;;16.77;9.40;;;;;;;12.21;30.88;102201.56;5019619;27;99031;-71
2021/03/31 01:25:32;;;;;;;18.95;10.25;;;;;;;12.25;30.51;102195.50;4973675;27;98248;-71
2021/03/31 01:28:07;;;;;;;17.42;9.88;;;;;;;12.23;30.27;102197.19;5002087;27;96956;-71
2021/03/31 01:30:39;;;;;;;18.67;12.43;;;;;;;12.10;31.57;102202.06;5014296;27;97670;-70
2021/03/31 01:33:21;;;;;;;13.15;9.88;;;;;;;12.11;31.24;102198.53;5019382;27;98695;-71
2021/03/31 01:35:50;;;;;;;18.60;10.07;;;;;;;12.07;30.74;102201.94;4999857;27;97394;-71
2021/03/31 01:38:19;;;;;;;16.70;10.55;;;;;;;12.06;30.61;102202.78;4994505;28;99028;-71
2021/03/31 01:40:48;;;;;;;18.30;10.02;;;;;;;12.04;30.65;102198.25;5001778;27;98640;-70
2021/03/31 01:43:17;;;;;;;15.40;10.77;;;;;;;11.98;30.79;102187.34;4983805;28;99668;-71
2021/03/31 01:45:48;;;;;;;20.10;10.98;;;;;;;11.92;30.53;102189.78;5000762;27;98027;-71
2021/03/31 01:48:17;;;;;;;19.70;12.02;;;;;;;11.85;31.82;102193.97;5016702;27;97537;-71
2021/03/31 01:50:50;;;;;;;18.80;11.10;;;;;;;11.88;31.41;102185.19;5017760;27;97709;-71
2021/03/31 01:53:18;;;;;;;16.50;10.55;;;;;;;11.86;31.09;102177.13;5000213;28;98469;-72
2021/03/31 01:55:48;;;;;;;22.03;13.97;;;;;;;11.88;31.97;102182.50;5016698;27;97144;-71
2021/03/31 01:58:16;;;;;;;15.77;10.20;;;;;;;11.87;31.77;102183.38;5018634;27;97827;-70
2021/03/31 02:00:43;;;;;;;16.52;10.20;;;;;;;11.81;31.36;102181.38;4996403;27;101268;-70
2021/03/31 02:03:10;;;;;;;16.63;10.35;;;;;;;11.74;31.37;102173.97;5015121;27;97826;-70
2021/03/31 02:05:37;;;;;;;19.35;12.93;;;;;;;11.75;31.97;102174.88;5016725;27;97423;-70
2021/03/31 02:08:05;;;;;;;19.25;13.02;;;;;;;11.76;32.33;102169.59;4978823;27;96995;-70
2021/03/31 02:10:33;;;;;;;20.80;13.23;;;;;;;11.85;32.50;102166.41;4983680;28;99368;-71
2021/03/31 02:13:01;;;;;;;18.97;13.23;;;;;;;11.88;32.44;102156.75;5001078;27;99010;-71
2021/03/31 02:15:29;;;;;;;17.80;12.55;;;;;;;11.91;32.46;102155.94;5002247;28;97238;-71
2021/03/31 02:17:57;;;;;;;19.35;13.43;;;;;;;11.95;32.43;102152.53;4982731;27;97765;-70
2021/03/31 02:20:25;;;;;;;17.03;11.90;;;;;;;11.95;32.60;102155.22;5002100;28;99178;-70
2021/03/31 02:22:52;;;;;;;14.05;10.48;;;;;;;11.87;32.20;102151.38;5003735;27;101399;-70
2021/03/31 02:25:19;;;;;;;16.42;10.68;;;;;;;11.79;31.94;102153.75;5003396;28;97590;-70
2021/03/31 02:27:47;;;;;;;18.52;12.18;;;;;;;11.76;32.54;102145.59;5002594;27;97518;-70
2021/03/31 02:30:16;;;;;;;19.88;13.23;;;;;;;11.74;32.41;102149.06;4985036;28;99524;-70
2021/03/31 02:32:46;;;;;;;18.60;12.98;;;;;;;11.76;32.39;102145.59;5000256;27;98828;-70
2021/03/31 02:35:14;;;;;;;19.25;10.48;;;;;;;11.74;32.04;102138.41;5002048;28;97019;-70
2021/03/31 02:37:41;;;;;;;15.15;10.38;;;;;;;11.67;32.12;102150.59;4986563;28;98019;-70
2021/03/31 02:40:10;;;;;;;22.85;13.65;;;;;;;11.62;32.60;102136.19;5001779;28;98898;-69
2021/03/31 02:42:38;;;;;;;21.30;13.70;;;;;;;11.67;32.48;102145.25;5001122;28;98267;-69
2021/03/31 02:45:07;;;;;;;23.27;13.18;;;;;;;11.74;32.43;102138.41;5003749;27;97294;-69
2021/03/31 02:47:38;;;;;;;18.38;11.45;;;;;;;11.67;32.38;102134.59;5020965;27;97852;-70
2021/03/31 02:50:07;;;;;;;22.08;11.65;;;;;;;11.59;32.19;102132.47;5020402;27;97741;-70
2021/03/31 02:52:34;;;;;;;15.90;10.63;;;;;;;11.50;32.29;102141.03;5000595;28;98062;-71
2021/03/31 02:55:22;;;;;;;27.13;17.92;;;;;;;11.42;32.83;102128.25;5003838;28;97296;-70
2021/03/31 02:57:50;;;;;;;33.10;20.80;;;;;;;11.39;33.22;102131.72;5019250;27;96967;-70
2021/03/31 03:00:19;;;;;;;24.20;15.20;;;;;;;11.37;32.65;102128.09;4972450;28;98765;-70
2021/03/31 03:02:46;;;;;;;17.92;11.52;;;;;;;11.35;32.51;102128.88;5002798;27;96912;-70
2021/03/31 03:05:15;;;;;;;16.83;11.20;;;;;;;11.25;32.39;102124.00;5001506;28;97972;-70
2021/03/31 03:07:41;;;;;;;16.40;10.48;;;;;;;11.16;32.31;102130.75;5021101;27;97870;-70
2021/03/31 03:10:10;;;;;;;16.70;10.52;;;;;;;11.10;32.20;102133.16;5020717;27;98354;-70
2021/03/31 03:12:42;;;;;;;19.50;10.40;;;;;;;11.06;32.17;102127.69;5022050;27;97702;-71
2021/03/31 03:15:12;;;;;;;15.32;9.32;;;;;;;10.93;32.07;102118.28;5003273;28;97598;-70
2021/03/31 03:17:40;;;;;;;17.30;10.68;;;;;;;10.77;32.21;102120.25;5003416;28;97865;-71
2021/03/31 03:20:09;;;;;;;16.58;10.75;;;;;;;10.67;32.15;102131.34;5019829;27;98830;-71
2021/03/31 03:22:37;;;;;;;16.40;9.65;;;;;;;10.58;32.15;102126.56;5022432;27;97773;-71
2021/03/31 03:25:05;;;;;;;20.38;10.50;;;;;;;10.48;32.41;102126.09;4998642;27;97219;-72
2021/03/31 03:27:32;;;;;;;16.02;9.52;;;;;;;10.45;32.14;102125.97;5019851;27;96921;-71
2021/03/31 03:30:20;;;;;;;18.13;10.20;;;;;;;10.36;32.14;102115.78;4996358;28;98979;-71
2021/03/31 03:32:49;;;;;;;16.77;10.73;;;;;;;10.34;31.96;102117.47;5019970;27;97797;-71
2021/03/31 03:35:17;;;;;;;19.20;11.65;;;;;;;10.31;32.02;102116.44;5001016;28;96873;-71
2021/03/31 03:37:45;;;;;;;17.30;10.52;;;;;;;10.31;31.95;102116.44;5003443;27;97627;-71
2021/03/31 03:40:13;;;;;;;15.93;10.13;;;;;;;10.18;32.16;102115.91;4982869;28;101297;-70
2021/03/31 03:42:40;;;;;;;14.10;10.52;;;;;;;10.10;31.94;102117.31;4999610;28;98164;-71
2021/03/31 03:45:10;;;;;;;17.80;11.82;;;;;;;10.01;32.09;102118.69;5002384;28;97313;-70
2021/03/31 03:47:38;;;;;;;13.50;10.32;;;;;;;9.99;32.06;102110.63;5019673;27;97225;-71
2021/03/31 03:50:09;;;;;;;17.33;10.13;;;;;;;9.92;32.01;102119.16;4989192;27;98608;-70
2021/03/31 03:52:36;;;;;;;16.15;10.52;;;;;;;9.90;32.00;102117.28;4985875;28;99656;-71
2021/03/31 03:55:05;;;;;;;22.58;14.18;;;;;;;9.83;32.98;102115.16;5017523;27;97614;-71
2021/03/31 03:57:32;;;;;;;18.77;13.00;;;;;;;9.82;32.59;102108.97;4979706;28;97727;-71
2021/03/31 03:59:59;;;;;;;21.40;13.77;;;;;;;9.80;33.18;102115.97;5019928;27;98985;-71
2021/03/31 04:02:27;;;;;;;23.52;14.60;;;;;;;9.88;33.23;102111.00;4992879;28;98938;-71
2021/03/31 04:04:53;;;;;;;20.42;13.98;;;;;;;9.95;33.24;102111.34;4981836;27;98033;-71
2021/03/31 04:07:21;;;;;;;16.88;10.65;;;;;;;9.92;32.90;102108.53;5019811;27;96988;-71
2021/03/31 04:09:48;;;;;;;19.53;13.27;;;;;;;9.92;33.14;102108.53;4997757;27;99784;-71
2021/03/31 04:12:16;;;;;;;20.27;14.15;;;;;;;9.96;33.18;102105.16;5020686;27;98301;-71
2021/03/31 04:14:44;;;;;;;20.83;13.40;;;;;;;10.04;33.20;102110.84;5000522;27;97750;-71
2021/03/31 04:17:13;;;;;;;37.20;20.45;;;;;;;10.08;33.11;102104.81;5000922;28;97441;-72
2021/03/31 04:19:41;;;;;;;29.13;16.60;;;;;;;10.14;33.02;102105.06;4984657;28;96692;-71
2021/03/31 04:22:32;;;;;;;22.70;12.40;;;;;;;10.12;32.74;102102.34;5019611;27;97883;-71
2021/03/31 04:24:59;;;;;;;20.33;11.20;;;;;;;10.05;32.64;102102.91;4999844;27;97961;-71
2021/03/31 04:27:28;;;;;;;16.98;11.40;;;;;;;10.06;32.61;102104.72;4981155;28;99234;-71
2021/03/31 04:29:56;;;;;;;18.67;11.27;;;;;;;10.05;32.50;102096.69;5002291;27;100036;-71
2021/03/31 04:32:23;;;;;;;18.55;10.70;;;;;;;10.06;32.28;102104.72;5021836;27;97614;-72
2021/03/31 04:34:51;;;;;;;20.63;12.15;;;;;;;10.04;32.24;102102.84;4996290;27;97482;-72
2021/03/31 04:37:18;;;;;;;21.13;13.32;;;;;;;10.02;32.24;102101.88;5019362;27;97436;-71
2021/03/31 04:39:45;;;;;;;17.75;12.50;;;;;;;10.03;32.09;102099.28;5019956;27;99517;-71
2021/03/31 04:42:12;;;;;;;144.20;57.88;;;;;;;10.01;31.94;102103.63;5000923;28;99211;-71
2021/03/31 04:44:39;;;;;;;48.83;25.60;;;;;;;10.01;31.92;102098.28;5001323;28;97630;-72
2021/03/31 04:47:06;;;;;;;24.58;16.55;;;;;;;9.95;33.19;102097.13;5000295;27;97066;-72
2021/03/31 04:49:33;;;;;;;18.92;13.00;;;;;;;9.99;32.45;102097.31;5019112;27;97993;-72
2021/03/31 04:51:59;;;;;;;21.80;13.48;;;;;;;9.99;32.39;102093.78;5000881;27;99830;-72
2021/03/31 04:54:27;;;;;;;22.30;13.30;;;;;;;9.95;32.30;102090.06;5000954;28;98194;-73
2021/03/31 04:56:55;;;;;;;18.70;12.48;;;;;;;9.95;32.24;102091.81;5019634;27;97550;-73
2021/03/31 04:59:21;;;;;;;20.30;12.82;;;;;;;9.90;32.28;102088.94;4993891;28;100400;-72
2021/03/31 05:01:48;;;;;;;20.17;13.32;;;;;;;9.89;32.30;102088.88;4998939;27;99350;-72
2021/03/31 05:04:15;;;;;;;17.60;12.63;;;;;;;9.88;32.20;102093.25;5000168;28;96923;-71
2021/03/31 05:06:42;;;;;;;17.27;11.85;;;;;;;9.87;32.24;102083.50;5016961;27;96881;-71
2021/03/31 05:09:09;;;;;;;17.85;11.82;;;;;;;9.90;32.15;102086.28;4998504;28;99936;-72
2021/03/31 05:11:36;;;;;;;18.15;12.40;;;;;;;9.88;32.03;102079.97;4998373;28;98197;-73
2021/03/31 05:14:06;;;;;;;20.83;12.13;;;;;;;9.91;32.43;102079.22;5000092;27;98227;-72
2021/03/31 05:16:33;;;;;;;16.95;11.07;;;;;;;9.90;32.06;102075.63;5015804;27;97796;-72
2021/03/31 05:18:59;;;;;;;16.45;11.30;;;;;;;9.90;31.96;102086.28;4982201;27;98469;-72
2021/03/31 05:21:27;;;;;;;16.48;11.93;;;;;;;9.86;31.97;102079.00;5017987;27;98053;-72
2021/03/31 05:23:53;;;;;;;18.50;11.93;;;;;;;9.86;31.96;102079.00;5017779;27;97286;-72
2021/03/31 05:26:20;;;;;;;20.88;11.90;;;;;;;9.84;32.04;102074.47;5017010;27;96869;-72
2021/03/31 05:28:47;;;;;;;17.88;12.52;;;;;;;9.88;31.94;102072.00;5015575;27;97917;-72
2021/03/31 05:31:14;;;;;;;23.38;12.55;;;;;;;9.85;31.93;102065.63;5017103;27;98126;-72
2021/03/31 05:33:41;;;;;;;19.30;12.45;;;;;;;9.82;32.02;102061.13;4999006;28;97020;-72
2021/03/31 05:36:09;;;;;;;22.27;12.50;;;;;;;9.81;31.97;102061.94;5016287;27;97551;-71
2021/03/31 05:38:36;;;;;;;21.33;12.93;;;;;;;9.81;32.14;102069.91;4994954;28;99744;-72
2021/03/31 05:41:04;;;;;;;26.73;13.10;;;;;;;9.81;32.04;102061.06;5002528;27;97983;-72
2021/03/31 05:43:31;;;;;;;19.33;13.13;;;;;;;9.84;31.96;102064.75;5007649;28;97336;-72
2021/03/31 05:45:58;;;;;;;18.88;13.90;;;;;;;9.85;31.97;102061.22;5002759;27;99074;-73
2021/03/31 05:48:26;;;;;;;23.15;13.02;;;;;;;9.89;31.91;102060.53;5026278;27;98005;-72
2021/03/31 05:50:53;;;;;;;22.42;13.25;;;;;;;9.86;31.92;102059.50;5026448;27;97810;-72
2021/03/31 05:53:19;;;;;;;23.77;15.38;;;;;;;9.85;31.77;102061.22;5007392;28;97056;-70
2021/03/31 05:55:46;;;;;;;26.90;14.48;;;;;;;9.91;31.96;102056.19;4999452;27;97397;-71
2021/03/31 05:58:13;;;;;;;30.15;14.15;;;;;;;9.94;32.00;102058.97;5009972;28;100603;-72
2021/03/31 06:00:40;;;;;;;23.80;13.25;;;;;;;9.98;31.75;102073.31;5002111;28;97649;-71
2021/03/31 06:03:08;;;;;;;26.00;15.38;;;;;;;9.98;31.79;102063.59;5011331;28;96891;-72
2021/03/31 06:05:35;;;;;;;24.38;15.32;;;;;;;9.99;31.87;102065.41;5007165;28;97621;-74
2021/03/31 06:08:03;;;;;;;23.10;13.63;;;;;;;10.05;31.85;102063.03;5006370;27;100393;-70
2021/03/31 06:10:31;;;;;;;28.80;16.05;;;;;;;10.05;31.85;102057.69;5007018;28;99274;-70
2021/03/31 06:13:01;;;;;;;21.20;14.70;;;;;;;10.05;31.95;102057.69;5007246;27;97875;-70
2021/03/31 06:15:34;;;;;;;23.60;13.40;;;;;;;10.03;31.97;102061.13;5026280;27;96838;-72
2021/03/31 06:18:11;;;;;;;32.63;15.25;;;;;;;9.98;32.21;102063.59;5024863;27;97806;-73
2021/03/31 06:20:48;;;;;;;22.83;14.13;;;;;;;10.05;32.40;102055.03;5028069;27;98747;-72
2021/03/31 06:23:25;;;;;;;24.48;13.65;;;;;;;10.10;31.98;102060.56;5012443;28;97104;-71
2021/03/31 06:25:56;;;;;;;28.42;14.02;;;;;;;10.07;31.97;102058.69;5026340;27;97622;-72
2021/03/31 06:28:28;;;;;;;22.92;14.60;;;;;;;10.16;31.99;102056.41;5007176;28;100483;-72
2021/03/31 06:31:16;;;;;;;26.02;14.32;;;;;;;10.26;31.73;102051.47;4995993;28;98016;-71
2021/03/31 06:33:45;;;;;;;22.90;14.80;;;;;;;10.37;31.70;102051.09;5026672;27;97635;-71
2021/03/31 06:36:14;;;;;;;24.48;14.20;;;;;;;10.40;31.67;102052.97;5005679;28;97194;-71
2021/03/31 06:38:47;;;;;;;22.33;13.70;;;;;;;10.47;31.66;102047.09;5003170;27;98721;-70
2021/03/31 06:41:22;;;;;;;26.60;14.48;;;;;;;10.51;31.62;102054.34;5008120;28;100745;-70
2021/03/31 06:44:03;;;;;;;24.23;14.20;;;;;;;10.58;31.64;102045.78;5001505;27;98040;-70
2021/03/31 06:46:40;;;;;;;19.15;13.85;;;;;;;10.67;31.33;102048.81;4985383;28;97528;-71
2021/03/31 06:49:08;;;;;;;19.13;13.48;;;;;;;10.73;31.46;102050.00;5022740;27;98159;-72
2021/03/31 06:51:35;;;;;;;20.98;14.18;;;;;;;10.75;31.34;102044.72;5004407;28;97851;-70
2021/03/31 06:54:13;;;;;;;25.38;14.02;;;;;;;10.74;31.80;102040.25;5001427;27;96933;-71
2021/03/31 06:56:41;;;;;;;24.50;14.50;;;;;;;10.80;31.44;102044.06;5020752;27;97308;-72
2021/03/31 06:59:08;;;;;;;23.38;14.68;;;;;;;10.85;31.51;102044.25;5020047;27;98977;-72
2021/03/31 07:01:35;;;;;;;30.27;17.65;;;;;;;10.92;31.30;102038.31;5021497;27;99546;-71
2021/03/31 07:04:04;;;;;;;25.27;15.85;;;;;;;11.06;31.18;102039.78;5022357;27;97577;-71
2021/03/31 07:06:31;;;;;;;27.02;15.57;;;;;;;11.15;31.13;102029.47;5002134;28;97742;-71
2021/03/31 07:08:59;;;;;;;22.20;14.82;;;;;;;11.19;31.21;102031.41;4984604;27;98709;-72
2021/03/31 07:11:39;;;;;;;22.95;14.60;;;;;;;11.25;31.33;102025.41;5004565;28;100874;-71
2021/03/31 07:14:08;;;;;;;26.20;13.98;;;;;;;11.37;31.06;102029.47;5004141;28;98267;-72
2021/03/31 07:16:35;;;;;;;26.05;14.68;;;;;;;11.47;30.94;102022.72;5019033;27;97937;-70
2021/03/31 07:19:03;;;;;;;24.40;16.17;;;;;;;11.54;30.79;102028.34;5002589;27;98369;-71
2021/03/31 07:21:32;;;;;;;28.40;14.90;;;;;;;11.66;30.57;102023.47;4988460;28;99452;-71
2021/03/31 07:24:00;;;;;;;23.83;14.05;;;;;;;11.73;30.61;102017.50;5002848;27;97318;-71
2021/03/31 07:26:28;;;;;;;20.88;14.18;;;;;;;11.85;30.62;102025.91;5003122;28;96827;-71
2021/03/31 07:28:57;;;;;;;23.13;14.70;;;;;;;11.90;30.55;102021.69;4993673;27;99750;-71
2021/03/31 07:31:27;;;;;;;22.75;14.25;;;;;;;11.99;30.46;102024.66;5001222;28;97618;-71
2021/03/31 07:34:08;;;;;;;22.23;13.98;;;;;;;12.09;30.80;102017.84;4998965;27;97954;-72
2021/03/31 07:36:36;;;;;;;28.17;15.10;;;;;;;12.17;30.33;102021.75;5021135;27;98723;-71
2021/03/31 07:39:07;;;;;;;27.38;13.95;;;;;;;12.26;30.38;102007.78;4989310;27;98081;-71
2021/03/31 07:41:37;;;;;;;28.98;15.10;;;;;;;12.38;30.10;102005.56;5002227;28;99506;-72
2021/03/31 07:44:05;;;;;;;27.77;14.15;;;;;;;12.45;29.94;102016.50;4980684;27;97473;-72
2021/03/31 07:46:37;;;;;;;22.52;13.88;;;;;;;12.57;30.11;102018.63;4985844;28;97010;-72
2021/03/31 07:49:05;;;;;;;20.80;12.50;;;;;;;12.71;29.79;102012.00;5017094;27;97515;-71
2021/03/31 07:51:32;;;;;;;27.27;14.50;;;;;;;12.80;29.63;102014.97;5018151;27;98143;-71
2021/03/31 07:54:00;;;;;;;27.90;13.27;;;;;;;12.81;29.76;102004.31;5018793;27;97206;-72
2021/03/31 07:56:34;;;;;;;24.73;14.32;;;;;;;12.95;29.82;102008.31;5020627;27;97567;-72
2021/03/31 07:59:11;;;;;;;24.90;13.30;;;;;;;13.01;29.66;102013.88;4990892;27;97730;-77
2021/03/31 08:01:39;;;;;;;33.33;18.63;;;;;;;13.01;29.86;102012.97;4998280;28;97215;-76
2021/03/31 08:04:08;;;;;;;29.00;14.95;;;;;;;13.18;29.68;102009.94;4977100;28;98219;-73
2021/03/31 08:06:36;;;;;;;39.23;18.27;;;;;;;13.26;29.95;102004.81;4998801;28;97118;-74
2021/03/31 08:09:10;;;;;;;28.67;14.70;;;;;;;13.48;29.56;101993.91;5016712;27;97007;-73
2021/03/31 08:11:52;;;;;;;35.35;19.00;;;;;;;13.48;29.89;101988.53;5016767;27;97471;-74
2021/03/31 08:14:35;;;;;;;31.13;17.75;;;;;;;13.60;29.84;101991.59;4990232;28;96862;-72
2021/03/31 08:17:07;;;;;;;31.98;18.80;;;;;;;13.72;29.71;101982.97;4982837;27;97539;-70
2021/03/31 08:19:38;;;;;;;32.70;18.40;;;;;;;13.90;29.57;101981.75;4999219;28;99344;-71
2021/03/31 08:22:20;;;;;;;26.35;15.32;;;;;;;14.19;29.19;101982.47;5002555;27;97599;-72
2021/03/31 08:24:48;;;;;;;27.23;14.35;;;;;;;14.29;28.83;101983.63;5019661;27;97325;-73
2021/03/31 08:27:16;;;;;;;24.35;14.52;;;;;;;14.38;28.94;101979.41;5000301;28;97540;-72
2021/03/31 08:29:49;;;;;;;35.40;18.75;;;;;;;14.34;28.83;101981.97;4989272;27;98150;-74
2021/03/31 08:32:16;;;;;;;32.90;19.08;;;;;;;14.41;28.93;101981.28;5000344;28;99019;-70
2021/03/31 08:34:44;;;;;;;31.02;16.42;;;;;;;14.65;28.42;101980.09;4999127;27;98308;-72
2021/03/31 08:37:26;;;;;;;28.60;15.30;;;;;;;14.79;28.58;101978.63;5017632;27;98653;-72
2021/03/31 08:39:53;;;;;;;26.67;13.60;;;;;;;14.91;28.22;101972.66;4997244;27;100220;-71
2021/03/31 08:42:21;;;;;;;28.38;13.50;;;;;;;14.97;27.89;101973.69;4993858;28;99477;-74
2021/03/31 08:44:54;;;;;;;33.22;15.63;;;;;;;15.07;28.17;101966.75;5018882;27;97333;-71
2021/03/31 08:47:23;;;;;;;28.58;15.18;;;;;;;15.21;27.88;101962.56;4991725;28;97669;-72
2021/03/31 08:49:52;;;;;;;29.10;14.57;;;;;;;15.36;27.80;101962.94;5020301;27;97703;-72
2021/03/31 08:52:21;;;;;;;30.70;14.90;;;;;;;15.43;27.59;101955.94;4974819;28;99681;-73
2021/03/31 08:54:49;;;;;;;25.42;14.75;;;;;;;15.53;27.38;101961.50;4999965;27;98176;-72
2021/03/31 08:57:18;;;;;;;34.60;15.52;;;;;;;15.65;27.54;101964.41;4985786;28;96903;-71
2021/03/31 08:59:49;;;;;;;30.10;16.35;;;;;;;15.73;27.62;101960.09;5020347;27;98184;-73
2021/03/31 09:02:18;;;;;;;30.85;16.95;;;;;;;15.84;27.43;101965.66;5001889;28;98845;-71
2021/03/31 09:05:01;;;;;;;26.38;14.32;;;;;;;15.93;27.42;101958.69;5000644;27;97340;-72
2021/03/31 09:07:28;;;;;;;26.05;13.88;;;;;;;15.99;27.01;101947.16;5004071;28;97267;-72
2021/03/31 09:09:56;;;;;;;28.45;14.15;;;;;;;16.07;26.99;101951.81;5022208;27;97768;-72
2021/03/31 09:12:25;;;;;;;27.02;13.50;;;;;;;16.18;27.23;101946.59;5000752;28;100950;-71
2021/03/31 09:14:55;;;;;;;32.75;14.77;;;;;;;16.34;26.85;101947.78;5021605;27;96842;-72
2021/03/31 09:17:23;;;;;;;27.75;14.95;;;;;;;16.46;27.12;101939.88;5018539;27;97044;-73
2021/03/31 09:19:51;;;;;;;27.48;14.70;;;;;;;16.56;26.88;101936.47;5021313;27;98332;-71
2021/03/31 09:22:20;;;;;;;25.58;14.48;;;;;;;16.68;26.67;101934.88;5000358;28;99189;-72
2021/03/31 09:24:48;;;;;;;29.63;15.93;;;;;;;16.81;26.50;101926.13;4999432;28;96975;-70
2021/03/31 09:27:17;;;;;;;27.10;14.70;;;;;;;16.89;26.51;101928.91;4998967;28;98027;-73
2021/03/31 09:29:46;;;;;;;25.70;13.43;;;;;;;16.99;26.34;101929.06;4998407;27;99920;-71
2021/03/31 09:32:19;;;;;;;25.60;14.75;;;;;;;17.10;26.42;101923.81;5017603;27;97528;-71
2021/03/31 09:34:48;;;;;;;26.83;13.80;;;;;;;17.17;26.50;101916.72;5016637;27;97244;-71
2021/03/31 09:37:18;;;;;;;28.90;14.45;;;;;;;17.30;26.39;101914.19;4998948;28;97010;-71
2021/03/31 09:39:50;;;;;;;25.67;13.63;;;;;;;17.40;26.19;101913.44;4998910;27;99290;-71
2021/03/31 09:42:21;;;;;;;27.00;13.15;;;;;;;17.34;26.45;101907.97;4982191;28;99497;-71
2021/03/31 09:44:49;;;;;;;24.55;12.02;;;;;;;17.42;26.40;101910.78;4995076;28;97081;-74
2021/03/31 09:47:18;;;;;;;27.73;13.85;;;;;;;17.49;26.28;101907.28;4998657;28;97240;-73
2021/03/31 09:49:45;;;;;;;28.10;13.30;;;;;;;17.56;26.18;101906.44;5017101;27;96862;-73
2021/03/31 09:52:15;;;;;;;25.38;12.82;;;;;;;17.63;26.16;101906.53;4998434;28;96829;-73
2021/03/31 09:54:45;;;;;;;26.92;13.48;;;;;;;17.71;26.14;101894.00;5018130;27;97805;-72
2021/03/31 09:57:14;;;;;;;28.08;15.50;;;;;;;17.81;26.03;101897.69;5018660;27;97634;-74
2021/03/31 09:59:42;;;;;;;27.70;13.65;;;;;;;17.91;25.86;101895.09;4981949;28;100500;-74
2021/03/31 10:02:09;;;;;;;31.70;13.98;;;;;;;18.02;25.87;101892.53;5011432;28;99173;-73
2021/03/31 10:04:39;;;;;;;25.63;13.15;;;;;;;18.14;25.68;101887.25;5019033;27;97168;-74
2021/03/31 10:07:08;;;;;;;22.73;13.48;;;;;;;18.26;25.56;101881.06;5001816;27;97186;-74
2021/03/31 10:09:41;;;;;;;30.33;14.43;;;;;;;18.36;25.08;101883.81;5001238;28;97763;-73
2021/03/31 10:12:10;;;;;;;34.03;14.40;;;;;;;18.41;25.77;101886.53;5016879;27;96969;-74
2021/03/31 10:14:46;;;;;;;26.80;13.98;;;;;;;18.54;25.51;101888.41;4998994;28;97054;-73
2021/03/31 10:17:16;;;;;;;25.55;14.05;;;;;;;18.63;25.46;101874.97;5017710;27;96982;-74
2021/03/31 10:19:44;;;;;;;29.10;17.20;;;;;;;18.70;25.50;101866.97;4998351;27;98565;-73
2021/03/31 10:22:12;;;;;;;24.33;14.45;;;;;;;18.79;25.33;101868.78;4997011;28;101027;-73
2021/03/31 10:24:58;;;;;;;24.85;13.90;;;;;;;18.91;25.47;101869.78;4972698;27;98131;-72
2021/03/31 10:27:40;;;;;;;27.02;15.10;;;;;;;19.08;25.52;101863.53;4978303;28;96971;-73
2021/03/31 10:30:23;;;;;;;30.60;16.73;;;;;;;19.12;25.51;101865.31;5001484;28;98690;-74
2021/03/31 10:33:10;;;;;;;25.50;15.52;;;;;;;19.19;25.14;101857.25;5023977;27;99676;-73
2021/03/31 10:35:46;;;;;;;24.73;13.93;;;;;;;19.26;25.24;101855.50;5022707;27;96935;-74
2021/03/31 10:38:22;;;;;;;25.30;13.90;;;;;;;19.34;25.08;101851.03;4992653;28;97554;-74
2021/03/31 10:41:28;;;;;;;25.88;13.90;;;;;;;19.45;25.23;101844.75;4986517;27;98947;-73
2021/03/31 10:46:50;;;;;;;26.60;13.77;;;;;;;19.60;25.28;101843.88;5024403;27;98577;-73
2021/03/31 10:49:30;;;;;;;28.65;13.75;;;;;;;19.67;25.30;101838.47;5022794;27;97171;-73
2021/03/31 10:51:58;;;;;;;26.85;14.30;;;;;;;19.76;24.64;101835.78;5022786;27;98396;-73
2021/03/31 10:54:27;;;;;;;29.70;14.50;;;;;;;19.86;24.70;101834.84;5007058;28;98035;-73
2021/03/31 10:57:04;;;;;;;31.27;13.40;;;;;;;19.98;24.97;101821.38;4990068;27;96827;-74
2021/03/31 10:59:31;;;;;;;41.50;23.15;;;;;;;20.12;24.95;101823.19;5006400;28;98471;-73
2021/03/31 11:01:58;;;;;;;28.23;15.32;;;;;;;20.21;24.42;101823.16;5023232;27;99594;-74
2021/03/31 11:04:25;;;;;;;26.67;15.68;;;;;;;20.29;24.37;101818.63;4985449;28;99333;-73
2021/03/31 11:06:52;;;;;;;28.00;13.85;;;;;;;20.36;24.49;101820.41;5022910;27;97737;-72
2021/03/31 11:09:20;;;;;;;24.67;14.27;;;;;;;20.44;24.59;101810.47;5004386;28;97418;-73
2021/03/31 11:11:46;;;;;;;24.33;13.85;;;;;;;20.44;24.16;101813.16;5003220;27;99208;-73
2021/03/31 11:14:13;;;;;;;23.08;13.35;;;;;;;20.57;24.06;101810.47;5022904;27;98775;-73
2021/03/31 11:16:43;;;;;;;24.77;13.82;;;;;;;20.65;24.26;101800.50;5003457;28;97575;-73
2021/03/31 11:19:15;;;;;;;30.85;14.13;;;;;;;20.76;24.17;101804.06;4985101;28;97038;-73
2021/03/31 11:27:09;;;;;;;23.48;13.07;;;;;;;21.08;23.79;101792.16;4978139;28;97354;-74
2021/03/31 11:29:36;;;;;;;23.30;13.00;;;;;;;21.19;23.60;101779.50;5019331;27;96964;-73